Tiempo atmosférico en la estación meteorológica de Almadén de la Plata, Sevilla (450 m.)

Fecha
DESCASC
Temp. máxima en grados centígrados (hora)
DESCASC
Temp. mínima en grados centígrados (hora)
DESCASC
Temp. media en grados centígrados
DESCASC
Racha de viento máxima en m/sg (hora)
DESCASC
Velocidad máxima media en intervalos de 10 minutos(hora)
DESCASC
Precipitaciones diarias en mm
DESCASC
Precipitaciones de 00:00 a 06:00 en mm
DESCASC
Precipitaciones de 06:00 a 12:00 en mm
DESCASC
Precipitaciones de 12:00 a 18:00 en mm
DESCASC
Precipitaciones de 18:00 a 24:00 en mm
DESCASC
24-09-2017 30.4 (18:10) 15.1 (08:30) 22.8 5.83 (14:40) 2.78 (14:40) 0 0 0 0 0
23-09-2017 30.2 (15:40) 14.3 (06:30) 22.3 6.11 (12:00) 3.33 (10:40) 0 0 0 0 0
22-09-2017 29.8 (16:50) 15.8 (07:50) 22.8 5.83 (14:00) 2.5 (15:00) 0 0 0 0 0
21-09-2017 30.8 (17:30) 15.6 (00:00) 23.2 6.11 (18:30) 3.06 (16:00) 0 0 0 0 0
20-09-2017 30.3 (17:20) 15.7 (00:00) 23 6.39 (15:40) 2.78 (13:40) 0 0 0 0 0
19-09-2017 31.6 (17:40) 14 (00:00) 22.8 6.11 (18:40) 3.06 (18:40) 0 0 0 0 0
18-09-2017 28.3 (15:30) 11.1 (00:00) 19.7 8.61 (13:50) 4.72 (18:40) 0 0 0 0 0
17-09-2017 27.6 (18:00) 11.8 (00:00) 19.7 7.5 (17:20) 3.61 (17:20) 0 0 0 0 0
16-09-2017 27 (17:40) 11.9 (00:00) 19.4 9.72 (19:10) 3.89 (19:50) 0 0 0 0 0
15-09-2017 28.3 (16:50) 13.6 (00:00) 20.9 10.28 (15:40) 4.44 (15:40) 0 0 0 0 0
14-09-2017 32.6 (17:00) 18.5 (00:00) 25.5 8.89 (17:50) 4.17 (18:00) 0 0 0 0 0
13-09-2017 34.6 (17:50) 18.4 (00:00) 26.5 5.83 (17:50) 3.06 (21:50) 0 0 0 0 0
12-09-2017 34.7 (15:10) 19.2 (00:00) 27 8.33 (17:10) 3.89 (11:30) 0 0 0 0 0
11-09-2017 36 (17:30) 16.7 (00:00) 26.4 6.67 (17:40) 3.33 (19:00) 0 0 0 0 0
10-09-2017 29 (17:20) 13.1 (00:00) 21.1 7.78 (01:10) 4.44 (01:10) 0 0 0 0 0
09-09-2017 27.7 (16:50) 13.9 (00:00) 20.8 10.56 (19:30) 6.11 (18:00) 0 0 0 0 0
08-09-2017 35.7 (18:10) 19.2 (00:00) 27.5 8.89 (16:50) 3.89 (16:20) 0 0 0 0 0
07-09-2017 35.3 (16:00) 19.1 (00:00) 27.2 8.06 (16:10) 3.89 (18:10) 0 0 0 0 0
06-09-2017 36.1 (16:50) 21.3 (00:00) 28.7 6.94 (16:00) 3.06 (21:50) 0 0 0 0 0
05-09-2017 34.2 (17:40) 18.6 (00:00) 26.4 6.94 (15:10) 3.33 (15:10) 0 0 0 0 0
04-09-2017 34.1 (17:40) 18.5 (00:00) 26.3 6.94 (17:00) 3.33 (16:10) 0 0 0 0 0
03-09-2017 33.7 (18:50) 19 (00:00) 26.4 8.06 (16:20) 3.61 (19:10) 0 0 0 0 0
02-09-2017 32.9 (18:00) 18.3 (00:00) 25.6 7.78 (15:40) 3.61 (15:40) 0 0 0 0 0
01-09-2017 34 (15:50) 19.1 (00:00) 26.6 6.94 (15:00) 3.33 (18:40) 0 0 0 0 0
31-08-2017 32.9 (17:00) 16.7 (00:00) 24.8 6.11 (14:20) 2.78 (11:00) 0 0 0 0 0
30-08-2017 28.4 (18:30) 13.7 (00:00) 21 5.28 (13:40) 2.5 (20:10) 0.2 0 0.2 0 0
29-08-2017 21.1 (12:40) 15.2 (00:00) 18.2 6.67 (13:50) 3.33 (13:50) 7.2 0 0 7.2 0
28-08-2017 27.3 (16:50) 17.3 (00:00) 22.3 9.44 (18:40) 4.17 (19:00) 0 0 0 0 0
27-08-2017 29.1 (15:30) 20.7 (00:00) 24.9 10 (17:00) 4.44 (15:40) 2.6 0 2.6 0 0
26-08-2017 35.1 (15:00) 21.6 (00:00) 28.3 9.72 (17:40) 5.56 (17:40) 0 0 0 0 0

Gráficas

Temp. máximas Temp. mínimas Temp. medias Precipitaciones Rachas de viento máximas Velocidades máximas media en intervalos de 10 minutos

Datos horarios

Fecha y hora oficial Temperatura (ºC) Velocidad del viento (km/h) Dirección del viento Racha (km/h) Dirección de racha Precipitación (mm) Presión (hPa) Tendencia (hPa) Humedad (%)
2017-09-24 23:00:00 22.4 3 Sudoeste 12 Sudoeste 0 -- -- 53
2017-09-24 22:00:00 23.8 5 Sudoeste 12 Sudoeste 0 -- -- 49
2017-09-24 21:00:00 25.6 6 Sur 14 Sur 0 -- -- 40
2017-09-24 20:00:00 27.8 6 Sur 16 Sudoeste 0 -- -- 36
2017-09-24 19:00:00 29.9 7 Sudoeste 16 Oeste 0 -- -- 32
2017-09-24 18:00:00 29.9 6 Sudeste 17 Sudoeste 0 -- -- 33
2017-09-24 17:00:00 30 6 Este 21 Este 0 -- -- 33
2017-09-24 16:00:00 29.3 6 Sudoeste 20 Sur 0 -- -- 36
2017-09-24 15:00:00 29.3 5 Sudoeste 21 Este 0 -- -- 36
2017-09-24 14:00:00 28.6 8 Este 18 Sudeste 0 -- -- 38
2017-09-24 13:00:00 27.6 6 Sudeste 14 Sur 0 -- -- 41
2017-09-24 12:00:00 25.8 4 Nordeste 12 Nordeste 0 -- -- 46
2017-09-24 11:00:00 22.7 2 Norte 6 Norte 0 -- -- 58
2017-09-24 10:00:00 18.8 2 Nordeste 4 Sudeste 0 -- -- 77
2017-09-24 09:00:00 15.7 0 Calma 5 Este 0 -- -- 92
2017-09-24 08:00:00 15.4 0 Calma 6 Este 0 -- -- 87
2017-09-24 07:00:00 15.5 4 Sudeste 7 Sudeste 0 -- -- 85
2017-09-24 06:00:00 16.1 0 Calma 12 Sudeste 0 -- -- 74
2017-09-24 05:00:00 17.3 5 Sudeste 12 Sudeste 0 -- -- 69
2017-09-24 04:00:00 17.6 0 Calma 4 Oeste 0 -- -- 63
2017-09-24 03:00:00 18.8 2 Oeste 4 Oeste 0 -- -- 62
2017-09-24 02:00:00 19.6 0 Calma 8 Oeste 0 -- -- 59
2017-09-24 01:00:00 20.8 2 Sudoeste 14 Sudoeste 0 -- -- 56
2017-09-24 00:00:00 22 6 Sudoeste 13 Sudoeste 0 -- -- 52
2017-09-23 23:00:00 23.1 6 Sudoeste 16 Sudoeste 0 -- -- 47
2017-09-23 22:00:00 23.4 8 Sur 15 Sur 0 -- -- 46
2017-09-23 21:00:00 24.4 8 Sur 12 Sur 0 -- -- 43
2017-09-23 20:00:00 27.2 6 Sur 13 Sudeste 0 -- -- 36
2017-09-23 19:00:00 29.4 5 Sudeste 14 Sudeste 0 -- -- 27
2017-09-23 18:00:00 29.3 8 Sudeste 18 Sudeste 0 -- -- 31
2017-09-23 17:00:00 29.3 10 Sudeste 19 Sudeste 0 -- -- 31
2017-09-23 16:00:00 29.3 11 Este 20 Sudeste 0 -- -- 34
2017-09-23 15:00:00 28.1 6 Sudoeste 20 Este 0 -- -- 37
2017-09-23 14:00:00 28.4 5 Nordeste 22 Este 0 -- -- 39
2017-09-23 13:00:00 26.9 9 Nordeste 22 Este 0 -- -- 44
2017-09-23 12:00:00 25 8 Este 22 Este 0 -- -- 51
2017-09-23 11:00:00 23 10 Este 19 Este 0 -- -- 54
2017-09-23 10:00:00 19.4 0 Calma 3 Nordeste 0 -- -- 57
2017-09-23 09:00:00 15.1 0 Calma 3 Sudeste 0 -- -- 70
2017-09-23 08:00:00 14.4 0 Calma 6 Sudeste 0 -- -- 70
2017-09-23 07:00:00 14.4 0 Calma 5 Sudeste 0 -- -- 69
2017-09-23 06:00:00 14.6 0 Calma -- -- 0 -- -- 68
2017-09-23 05:00:00 15.2 0 Calma 3 Sudeste 0 -- -- 64
2017-09-23 04:00:00 16.8 0 Calma 11 Sudeste 0 -- -- 59
2017-09-23 03:00:00 19.4 3 Sudoeste 14 Sur 0 -- -- 50
2017-09-23 02:00:00 19.9 5 Sur 11 Sudeste 0 -- -- 46
2017-09-23 01:00:00 20.6 4 Oeste 9 Oeste 0 -- -- 46
2017-09-23 00:00:00 21 0 Calma 11 Oeste 0 -- -- 47
2017-09-22 23:00:00 22.5 6 Oeste 12 Oeste 0 -- -- 44
2017-09-22 22:00:00 23 6 Sudoeste 13 Sur 0 -- -- 40
2017-09-22 21:00:00 23.9 8 Sur 11 Sur 0 -- -- 33
2017-09-22 20:00:00 26.3 6 Sur 14 Sur 0 -- -- 30
2017-09-22 19:00:00 28.8 7 Sur 17 Este 0 -- -- 27
2017-09-22 18:00:00 29.6 5 Sur 18 Sur 0 -- -- 26
2017-09-22 17:00:00 29.7 5 Noroeste 18 Sur 0 -- -- 27
2017-09-22 16:00:00 29 5 Oeste 20 Sur 0 -- -- 28
2017-09-22 15:00:00 28.5 9 Sur 19 Sudeste 0 -- -- 31
2017-09-22 14:00:00 27.4 8 Sudoeste 21 Sudoeste 0 -- -- 33
2017-09-22 13:00:00 26.7 5 Sudoeste 17 Sur 0 -- -- 37
2017-09-22 12:00:00 25.6 6 Sudeste 16 Sur 0 -- -- 40
2017-09-22 11:00:00 24 3 Nordeste 7 Nordeste 0 -- -- 46
2017-09-22 10:00:00 19.7 0 Calma 4 Nordeste 0 -- -- 59
2017-09-22 09:00:00 16.2 0 Calma 4 Oeste 0 -- -- 70
2017-09-22 08:00:00 15.9 0 Calma 5 Sur 0 -- -- 70
2017-09-22 07:00:00 16.4 3 Sudoeste 6 Sudoeste 0 -- -- 68
2017-09-22 06:00:00 17 0 Calma 5 Oeste 0 -- -- 64
2017-09-22 05:00:00 17.7 2 Oeste 8 Oeste 0 -- -- 61
2017-09-22 04:00:00 18.1 3 Oeste 9 Oeste 0 -- -- 57
2017-09-22 03:00:00 18.1 0 Calma 8 Noroeste 0 -- -- 54
2017-09-22 02:00:00 19.9 4 Noroeste 14 Oeste 0 -- -- 45
2017-09-22 01:00:00 20.6 4 Noroeste 10 Noroeste 0 -- -- 41
2017-09-22 00:00:00 21.1 4 Noroeste 12 Noroeste 0 -- -- 41
2017-09-21 23:00:00 22.7 7 Noroeste 14 Noroeste 0 -- -- 38
2017-09-21 22:00:00 23.2 5 Oeste 12 Sudoeste 0 -- -- 39
2017-09-21 21:00:00 24.9 7 Sudoeste 15 Sudoeste 0 -- -- 35
2017-09-21 20:00:00 26.6 5 Sudoeste 17 Sudoeste 0 -- -- 29
2017-09-21 19:00:00 29.1 9 Sudoeste 22 Sur 0 -- -- 26
2017-09-21 18:00:00 29.9 7 Sudoeste 15 Sudoeste 0 -- -- 25
2017-09-21 17:00:00 29.8 7 Sudoeste 18 Oeste 0 -- -- 24
2017-09-21 16:00:00 29.6 11 Sur 20 Sudeste 0 -- -- 25
2017-09-21 15:00:00 29.3 5 Sudeste 20 Este 0 -- -- 26
2017-09-21 14:00:00 28.4 5 Sudeste 19 Sudeste 0 -- -- 30
2017-09-21 13:00:00 28.6 6 Nordeste 15 Este 0 -- -- 30
2017-09-21 12:00:00 27.5 6 Nordeste 13 Nordeste 0 -- -- 33
2017-09-21 11:00:00 23.2 3 Nordeste 7 Este 0 -- -- 42
2017-09-21 10:00:00 19.5 2 Nordeste 4 Nordeste 0 -- -- 51
2017-09-21 09:00:00 16 0 Calma 4 Este 0 -- -- 61
2017-09-21 08:00:00 16.3 0 Calma 4 Sur 0 -- -- 58
2017-09-21 07:00:00 16.9 2 Sudeste 5 Sudeste 0 -- -- 56
2017-09-21 06:00:00 17.4 0 Calma 5 Sudeste 0 -- -- 54
2017-09-21 05:00:00 17.4 0 Calma 3 Oeste 0 -- -- 55
2017-09-21 04:00:00 18.2 2 Oeste 6 Oeste 0 -- -- 52
2017-09-21 03:00:00 18.2 0 Calma 9 Oeste 0 -- -- 53
2017-09-21 02:00:00 19.4 3 Oeste 14 Sudoeste 0 -- -- 50
2017-09-21 01:00:00 19.9 5 Oeste 10 Sudoeste 0 -- -- 49
2017-09-21 00:00:00 20.7 0 Calma 8 Oeste 0 -- -- 47
2017-09-20 23:00:00 21.9 4 Oeste 9 Sudoeste 0 -- -- 44
2017-09-20 22:00:00 22.7 3 Sudoeste 11 Sudoeste 0 -- -- 43
2017-09-20 21:00:00 24.1 8 Sur 10 Sur 0 -- -- 38
2017-09-20 20:00:00 27 6 Sur 14 Sudoeste 0 -- -- 33
2017-09-20 19:00:00 28.8 6 Sudoeste 17 Sudeste 0 -- -- 29
2017-09-20 18:00:00 29.1 7 Sur 19 Sur 0 -- -- 27
2017-09-20 17:00:00 29.6 6 Noroeste 20 Sur 0 -- -- 27
2017-09-20 16:00:00 29.2 9 Sur 23 Sudeste 0 -- -- 28
2017-09-20 15:00:00 28.7 7 Sur 20 Sudoeste 0 -- -- 29
2017-09-20 14:00:00 27.5 9 Sur 19 Sur 0 -- -- 32
2017-09-20 13:00:00 26.5 8 Sur 18 Este 0 -- -- 33
2017-09-20 12:00:00 24.9 8 Sur 17 Sudeste 0 -- -- 38
2017-09-20 11:00:00 23.4 3 Este 11 Este 0 -- -- 42
2017-09-20 10:00:00 20.9 8 Este 14 Este 0 -- -- 49
2017-09-20 09:00:00 17.5 4 Sudeste 7 Sudeste 0 -- -- 49
2017-09-20 08:00:00 15.8 3 Este 6 Este 0 -- -- 51
2017-09-20 07:00:00 16.3 2 Este 6 Este 0 -- -- 51
2017-09-20 06:00:00 16.2 0 Calma 2 Sudeste 0 -- -- 52
2017-09-20 05:00:00 16.7 0 Calma 7 Sur 0 -- -- 52
2017-09-20 04:00:00 18.3 4 Sudeste 8 Sudeste 0 -- -- 48
2017-09-20 03:00:00 20.1 3 Este 8 Este 0 -- -- 42
2017-09-20 02:00:00 20 4 Este 7 Sudeste 0 -- -- 42
2017-09-20 01:00:00 19.5 0 Calma 3 Oeste 0 -- -- 51
2017-09-20 00:00:00 20.2 0 Calma 9 Sudoeste 0 -- -- 54
2017-09-19 23:00:00 20.6 5 Sudoeste 11 Sudoeste 0 -- -- 53
2017-09-19 22:00:00 22.3 4 Sudoeste 16 Sudoeste 0 -- -- 46
2017-09-19 21:00:00 24.7 8 Sudoeste 19 Sudoeste 0 -- -- 40
2017-09-19 20:00:00 27 6 Sur 20 Sur 0 -- -- 32
2017-09-19 19:00:00 29 9 Sur 22 Sur 0 -- -- 29
2017-09-19 18:00:00 31.1 6 Oeste 17 Noroeste 0 -- -- 23
2017-09-19 17:00:00 30.9 9 Noroeste 21 Noroeste 0 -- -- 24
2017-09-19 16:00:00 29.9 8 Noroeste 19 Noroeste 0 -- -- 25
2017-09-19 15:00:00 28.9 5 Sur 18 Noroeste 0 -- -- 27
2017-09-19 14:00:00 27.9 7 Sudoeste 15 Sur 0 -- -- 29
2017-09-19 13:00:00 27.8 4 Nordeste 12 Nordeste 0 -- -- 30
2017-09-19 12:00:00 25.6 3 Nordeste 10 Noroeste 0 -- -- 35
2017-09-19 11:00:00 23 3 Nordeste 8 Nordeste 0 -- -- 43
2017-09-19 10:00:00 19 0 Calma 4 Nordeste 0 -- -- 56
2017-09-19 09:00:00 14.9 0 Calma 5 Oeste 0 -- -- 69
2017-09-19 08:00:00 14.1 3 Oeste 6 Oeste 0 -- -- 71
2017-09-19 07:00:00 14.8 3 Oeste 6 Oeste 0 -- -- 69
2017-09-19 06:00:00 15.3 3 Oeste 8 Oeste 0 -- -- 68
2017-09-19 05:00:00 15.7 3 Oeste 7 Oeste 0 -- -- 66
2017-09-19 04:00:00 16.5 2 Noroeste 10 Noroeste 0 -- -- 61
2017-09-19 03:00:00 17.6 4 Norte 13 Noroeste 0 -- -- 56
2017-09-19 02:00:00 18 5 Norte 14 Noroeste 0 -- -- 52
2017-09-19 01:00:00 18.3 2 Noroeste 15 Noroeste 0 -- -- 48
2017-09-19 00:00:00 18.7 0 Calma 11 Norte 0 -- -- 46
2017-09-18 23:00:00 19.8 5 Noroeste 14 Noroeste 0 -- -- 45
2017-09-18 22:00:00 20.7 6 Noroeste 13 Noroeste 0 -- -- 45
2017-09-18 21:00:00 22.4 6 Noroeste 17 Noroeste 0 -- -- 43
2017-09-18 20:00:00 24.1 12 Noroeste 26 Noroeste 0 -- -- 40
2017-09-18 19:00:00 26.2 12 Noroeste 28 Noroeste 0 -- -- 36
2017-09-18 18:00:00 27.4 13 Noroeste 31 Noroeste 0 -- -- 32
2017-09-18 17:00:00 27.6 15 Noroeste 29 Oeste 0 -- -- 34
2017-09-18 16:00:00 27.8 15 Noroeste 28 Noroeste 0 -- -- 36
2017-09-18 15:00:00 26.6 12 Noroeste 31 Noroeste 0 -- -- 37
2017-09-18 14:00:00 26.3 12 Norte 31 Noroeste 0 -- -- 37
2017-09-18 13:00:00 24.8 12 Norte 26 Noroeste 0 -- -- 36
2017-09-18 12:00:00 23.3 7 Nordeste 16 Norte 0 -- -- 32
2017-09-18 11:00:00 19.8 3 Nordeste 7 Nordeste 0 -- -- 37
2017-09-18 10:00:00 15.4 2 Norte 5 Norte 0 -- -- 51
2017-09-18 09:00:00 11.7 0 Calma 6 Noroeste 0 -- -- 66
2017-09-18 08:00:00 11.3 0 Calma 6 Oeste 0 -- -- 65
2017-09-18 07:00:00 12.1 3 Oeste 9 Oeste 0 -- -- 62
2017-09-18 06:00:00 12.5 2 Sudoeste 10 Noroeste 0 -- -- 59
2017-09-18 05:00:00 13.3 0 Calma 9 Oeste 0 -- -- 54
2017-09-18 04:00:00 14.3 2 Sudoeste 14 Noroeste 0 -- -- 47
2017-09-18 03:00:00 15.9 7 Oeste 15 Oeste 0 -- -- 40
2017-09-18 02:00:00 17 6 Noroeste 11 Noroeste 0 -- -- 34
2017-09-18 01:00:00 17.9 6 Oeste 12 Oeste 0 -- -- 31
2017-09-18 00:00:00 18 5 Oeste 11 Oeste 0 -- -- 36
2017-09-17 23:00:00 19 6 Sudoeste 15 Sudoeste 0 -- -- 39
2017-09-17 22:00:00 20.3 8 Sudoeste 22 Sudoeste 0 -- -- 37
2017-09-17 21:00:00 22.1 8 Sudoeste 18 Sur 0 -- -- 33
2017-09-17 20:00:00 25 9 Sudoeste 23 Sur 0 -- -- 23
2017-09-17 19:00:00 26.8 10 Sudoeste 24 Sudoeste 0 -- -- 22
2017-09-17 18:00:00 27.6 8 Sudoeste 27 Sur 0 -- -- 24
2017-09-17 17:00:00 27.5 10 Sur 22 Sudoeste 0 -- -- 26
2017-09-17 16:00:00 26.8 8 Sudoeste 20 Sudoeste 0 -- -- 27
2017-09-17 15:00:00 25.9 9 Oeste 20 Oeste 0 -- -- 28
2017-09-17 14:00:00 25 6 Sur 26 Sudeste 0 -- -- 34
2017-09-17 13:00:00 24.1 4 Este 18 Sudeste 0 -- -- 35
2017-09-17 12:00:00 22.8 8 Este 14 Este 0 -- -- 36
2017-09-17 11:00:00 20.7 4 Nordeste 11 Nordeste 0 -- -- 38
2017-09-17 10:00:00 17.7 4 Nordeste 11 Este 0 -- -- 41
2017-09-17 09:00:00 13.2 4 Sudeste 6 Sudeste 0 -- -- 49
2017-09-17 08:00:00 12.2 0 Calma 3 Sudoeste 0 -- -- 49
2017-09-17 07:00:00 12.3 2 Sudoeste 4 Sudoeste 0 -- -- 49
2017-09-17 06:00:00 12.6 0 Calma 2 Sudoeste 0 -- -- 62
2017-09-17 05:00:00 12.7 0 Calma 4 Sudeste 0 -- -- 68
2017-09-17 04:00:00 13.6 2 Sur 7 Sur 0 -- -- 68
2017-09-17 03:00:00 13.4 0 Calma -- -- 0 -- -- 64
2017-09-17 02:00:00 13.8 0 Calma -- -- 0 -- -- 61
2017-09-17 01:00:00 13.9 0 Calma -- -- 0 -- -- 58
2017-09-17 00:00:00 14.8 0 Calma 6 Sudeste 0 -- -- 55
2017-09-16 23:00:00 16.6 0 Calma 15 Sur 0 -- -- 50
2017-09-16 22:00:00 18.2 11 Sur 18 Sudoeste 0 -- -- 46
2017-09-16 21:00:00 20 10 Sur 21 Sudoeste 0 -- -- 42
2017-09-16 20:00:00 22.5 13 Sur 35 Sudeste 0 -- -- 35
2017-09-16 19:00:00 26.9 5 Oeste 19 Noroeste 0 -- -- 18
2017-09-16 18:00:00 26.9 8 Oeste 24 Noroeste 0 -- -- 17
2017-09-16 17:00:00 26.8 7 Oeste 23 Oeste 0 -- -- 16
2017-09-16 16:00:00 26.3 9 Noroeste 23 Oeste 0 -- -- 18
2017-09-16 15:00:00 25.3 8 Noroeste 22 Oeste 0 -- -- 20
2017-09-16 14:00:00 24.2 7 Oeste 19 Noroeste 0 -- -- 23
2017-09-16 13:00:00 23.2 6 Sudoeste 20 Norte 0 -- -- 23
2017-09-16 12:00:00 22.7 10 Norte 25 Norte 0 -- -- 25
2017-09-16 11:00:00 20.6 2 Este 8 Norte 0 -- -- 33
2017-09-16 10:00:00 16.1 3 Norte 11 Norte 0 -- -- 43
2017-09-16 09:00:00 13.4 6 Noroeste 13 Noroeste 0 -- -- 50
2017-09-16 08:00:00 12.6 3 Oeste 9 Noroeste 0 -- -- 52
2017-09-16 07:00:00 12.4 4 Oeste 13 Noroeste 0 -- -- 54
2017-09-16 06:00:00 12.3 4 Noroeste 9 Noroeste 0 -- -- 56
2017-09-16 05:00:00 12.8 3 Oeste 10 Noroeste 0 -- -- 55
2017-09-16 04:00:00 14.3 5 Noroeste 15 Noroeste 0 -- -- 51
2017-09-16 03:00:00 14.4 4 Noroeste 10 Noroeste 0 -- -- 49
2017-09-16 02:00:00 15.7 6 Noroeste 11 Noroeste 0 -- -- 43
2017-09-16 01:00:00 17 5 Noroeste 17 Noroeste 0 -- -- 34
2017-09-16 00:00:00 18.4 10 Noroeste 18 Noroeste 0 -- -- 27
2017-09-15 23:00:00 19.4 10 Noroeste 18 Norte 0 -- -- 25
2017-09-15 22:00:00 20.2 6 Noroeste 17 Noroeste 0 -- -- 24
2017-09-15 21:00:00 22 8 Noroeste 18 Noroeste 0 -- -- 24
2017-09-15 20:00:00 23.7 11 Noroeste 26 Norte 0 -- -- 24
2017-09-15 19:00:00 26.2 10 Norte 29 Noroeste 0 -- -- 20
2017-09-15 18:00:00 27 14 Noroeste 33 Noroeste 0 -- -- 20
2017-09-15 17:00:00 27.7 12 Noroeste 32 Oeste 0 -- -- 20
2017-09-15 16:00:00 27.2 13 Noroeste 37 Noroeste 0 -- -- 21
2017-09-15 15:00:00 27.1 13 Noroeste 26 Noroeste 0 -- -- 19
2017-09-15 14:00:00 25.5 7 Oeste 27 Sur 0 -- -- 25
2017-09-15 13:00:00 23.7 6 Sudoeste 20 Noroeste 0 -- -- 31
2017-09-15 12:00:00 22.7 5 Norte 23 Noroeste 0 -- -- 30
2017-09-15 11:00:00 20.4 5 Norte 19 Norte 0 -- -- 43
2017-09-15 10:00:00 17.3 7 Norte 15 Noroeste 0 -- -- 53
2017-09-15 09:00:00 14.3 6 Noroeste 12 Noroeste 0 -- -- 58
2017-09-15 08:00:00 13.8 7 Noroeste 16 Noroeste 0 -- -- 53
2017-09-15 07:00:00 14.6 3 Noroeste 15 Noroeste 0 -- -- 41
2017-09-15 06:00:00 15.7 2 Noroeste 11 Noroeste 0 -- -- 37
2017-09-15 05:00:00 17.5 4 Oeste 12 Oeste 0 -- -- 39
2017-09-15 04:00:00 18.5 7 Oeste 15 Oeste 0 -- -- 46
2017-09-15 03:00:00 19.6 4 Noroeste 14 Oeste 0 -- -- 55
2017-09-15 02:00:00 21.1 7 Noroeste 17 Oeste 0 -- -- 48
2017-09-15 01:00:00 22.7 10 Noroeste 21 Oeste 0 -- -- 37
2017-09-15 00:00:00 22.2 6 Oeste 13 Noroeste 0 -- -- 35
2017-09-14 23:00:00 22.9 5 Noroeste 9 Noroeste 0 -- -- 33
2017-09-14 22:00:00 25.6 5 Norte 16 Noroeste 0 -- -- 29
2017-09-14 21:00:00 27 7 Noroeste 21 Noroeste 0 -- -- 24
2017-09-14 20:00:00 30.1 8 Noroeste 22 Sudoeste 0 -- -- 21
2017-09-14 19:00:00 31.9 10 Sudoeste 28 Sudoeste 0 -- -- 23
2017-09-14 18:00:00 31.5 15 Sur 32 Sudoeste 0 -- -- 23
2017-09-14 17:00:00 32.6 12 Sudoeste 29 Sur 0 -- -- 24
2017-09-14 16:00:00 31.7 13 Sudoeste 27 Sudoeste 0 -- -- 30
2017-09-14 15:00:00 31.5 8 Sur 24 Oeste 0 -- -- 29
2017-09-14 14:00:00 30.3 6 Sudoeste 21 Sudoeste 0 -- -- 28
2017-09-14 13:00:00 29.1 8 Sudoeste 19 Oeste 0 -- -- 32
2017-09-14 12:00:00 27.1 6 Oeste 14 Sudoeste 0 -- -- 38
2017-09-14 11:00:00 26.2 5 Sudoeste 11 Sudoeste 0 -- -- 39
2017-09-14 10:00:00 22.7 0 Calma 4 Noroeste 0 -- -- 50
2017-09-14 09:00:00 19.7 0 Calma 9 Sudoeste 0 -- -- 58
2017-09-14 08:00:00 19 4 Oeste 9 Oeste 0 -- -- 58
2017-09-14 07:00:00 18.7 4 Sudoeste 6 Sudoeste 0 -- -- 57
2017-09-14 06:00:00 18.6 3 Sudoeste 5 Sudoeste 0 -- -- 54
2017-09-14 05:00:00 19 0 Calma 4 Oeste 0 -- -- 53
2017-09-14 04:00:00 19.7 0 Calma 6 Oeste 0 -- -- 50
2017-09-14 03:00:00 20.5 0 Calma 8 Oeste 0 -- -- 51
2017-09-14 02:00:00 22.4 4 Sudoeste 13 Sudoeste 0 -- -- 47
2017-09-14 01:00:00 23.3 6 Sudoeste 18 Sudoeste 0 -- -- 44
2017-09-14 00:00:00 24.3 8 Oeste 17 Sudoeste 0 -- -- 39
2017-09-13 23:00:00 25.2 9 Oeste 17 Sudoeste 0 -- -- 34
2017-09-13 22:00:00 26.6 10 Sudoeste 21 Sudoeste 0 -- -- 34
2017-09-13 21:00:00 28.6 9 Sudoeste 20 Sudoeste 0 -- -- 31
2017-09-13 20:00:00 31.4 9 Sur 20 Sudoeste 0 -- -- 23
2017-09-13 19:00:00 33.7 8 Sudoeste 21 Sudoeste 0 -- -- 20
2017-09-13 18:00:00 34.2 10 Sur 21 Oeste 0 -- -- 20
2017-09-13 17:00:00 34.3 7 Sudoeste 18 Sudoeste 0 -- -- 19
2017-09-13 16:00:00 33.8 7 Sudoeste 19 Sur 0 -- -- 20
2017-09-13 15:00:00 33 9 Sudoeste 19 Sur 0 -- -- 21
2017-09-13 14:00:00 32 7 Sudoeste 19 Sur 0 -- -- 26
2017-09-13 13:00:00 31 6 Sur 16 Sudeste 0 -- -- 25
2017-09-13 12:00:00 29.5 5 Nordeste 16 Este 0 -- -- 32
2017-09-13 11:00:00 26.7 7 Nordeste 18 Este 0 -- -- 39
2017-09-13 10:00:00 24.2 9 Este 16 Nordeste 0 -- -- 37
2017-09-13 09:00:00 21 0 Calma 7 Sudeste 0 -- -- 46
2017-09-13 08:00:00 18.5 0 Calma 4 Sudeste 0 -- -- 51
2017-09-13 07:00:00 19.3 2 Sudeste 5 Sudeste 0 -- -- 49
2017-09-13 06:00:00 19.9 0 Calma 4 Oeste 0 -- -- 47
2017-09-13 05:00:00 20.3 0 Calma 3 Sudeste 0 -- -- 46
2017-09-13 04:00:00 20.6 0 Calma 3 Sudeste 0 -- -- 45
2017-09-13 03:00:00 20.9 0 Calma 5 Noroeste 0 -- -- 42
2017-09-13 02:00:00 21.1 0 Calma 3 Oeste 0 -- -- 40
2017-09-13 01:00:00 21.5 2 Oeste 6 Noroeste 0 -- -- 36
2017-09-13 00:00:00 22.6 2 Oeste 10 Norte 0 -- -- 33
2017-09-12 23:00:00 23.3 0 Calma 5 Noroeste 0 -- -- 30
2017-09-12 22:00:00 24.6 0 Calma 8 Norte 0 -- -- 28
2017-09-12 21:00:00 26.9 4 Noroeste 18 Norte 0 -- -- 23
2017-09-12 20:00:00 30.3 9 Norte 23 Norte 0 -- -- 20
2017-09-12 19:00:00 33.1 9 Norte 26 Noroeste 0 -- -- 18
2017-09-12 18:00:00 33.5 11 Norte 30 Oeste 0 -- -- 18
2017-09-12 17:00:00 33.6 11 Noroeste 28 Norte 0 -- -- 18
2017-09-12 16:00:00 32.9 8 Noroeste 25 Noroeste 0 -- -- 20
2017-09-12 15:00:00 34.2 6 Norte 23 Norte 0 -- -- 19
2017-09-12 14:00:00 31.9 6 Norte 21 Noroeste 0 -- -- 22
2017-09-12 13:00:00 30 12 Norte 26 Noroeste 0 -- -- 24
2017-09-12 12:00:00 28.6 10 Norte 27 Noroeste 0 -- -- 27
2017-09-12 11:00:00 26.5 9 Norte 20 Noroeste 0 -- -- 31
2017-09-12 10:00:00 23.8 11 Noroeste 19 Noroeste 0 -- -- 37
2017-09-12 09:00:00 21.3 7 Noroeste 12 Noroeste 0 -- -- 43
2017-09-12 08:00:00 20.9 4 Norte 16 Noroeste 0 -- -- 43
2017-09-12 07:00:00 19.6 5 Norte 13 Noroeste 0 -- -- 47
2017-09-12 06:00:00 19.8 0 Calma 11 Norte 0 -- -- 48
2017-09-12 05:00:00 21.5 3 Norte 11 Noroeste 0 -- -- 44
2017-09-12 04:00:00 22.4 6 Norte 12 Norte 0 -- -- 43
2017-09-12 03:00:00 23.2 5 Norte 17 Norte 0 -- -- 40
2017-09-12 02:00:00 24.3 8 Norte 19 Norte 0 -- -- 37
2017-09-12 01:00:00 25.4 11 Norte 22 Norte 0 -- -- 35
2017-09-12 00:00:00 26 9 Norte 17 Noroeste 0 -- -- 33
2017-09-11 23:00:00 26.6 6 Noroeste 13 Noroeste 0 -- -- 31
2017-09-11 22:00:00 27 5 Noroeste 11 Norte 0 -- -- 29
2017-09-11 21:00:00 28.7 4 Norte 18 Noroeste 0 -- -- 25
2017-09-11 20:00:00 31.7 8 Norte 22 Noroeste 0 -- -- 20
2017-09-11 19:00:00 33.8 12 Noroeste 23 Norte 0 -- -- 19
2017-09-11 18:00:00 34.7 6 Norte 24 Noroeste 0 -- -- 21
2017-09-11 17:00:00 34.9 5 Norte 21 Norte 0 -- -- 19
2017-09-11 16:00:00 34.2 5 Nordeste 18 Norte 0 -- -- 18
2017-09-11 15:00:00 33 6 Nordeste 17 Este 0 -- -- 18
2017-09-11 14:00:00 31.1 5 Nordeste 17 Este 0 -- -- 19
2017-09-11 13:00:00 29.4 4 Sudoeste 13 Nordeste 0 -- -- 19
2017-09-11 12:00:00 28.9 4 Nordeste 15 Este 0 -- -- 20
2017-09-11 11:00:00 26.4 8 Este 17 Este 0 -- -- 23
2017-09-11 10:00:00 22.5 2 Nordeste 5 Nordeste 0 -- -- 28
2017-09-11 09:00:00 18.3 0 Calma 4 Oeste 0 -- -- 35
2017-09-11 08:00:00 17 0 Calma 4 Sudoeste 0 -- -- 35
2017-09-11 07:00:00 16.7 0 Calma 3 Sudoeste 0 -- -- 35
2017-09-11 06:00:00 17.2 0 Calma 5 Sudoeste 0 -- -- 34
2017-09-11 05:00:00 17 3 Oeste 5 Oeste 0 -- -- 34
2017-09-11 04:00:00 17.2 0 Calma 3 Sudeste 0 -- -- 34
2017-09-11 03:00:00 18.1 0 Calma 3 Sudeste 0 -- -- 33
2017-09-11 02:00:00 18.3 0 Calma 3 Sudeste 0 -- -- 32
2017-09-11 01:00:00 18.3 0 Calma 4 Oeste 0 -- -- 34
2017-09-11 00:00:00 19.1 2 Oeste 5 Noroeste 0 -- -- 33
2017-09-10 23:00:00 19.5 0 Calma 4 Sudeste 0 -- -- 32
2017-09-10 22:00:00 20.5 0 Calma 6 Norte 0 -- -- 30
2017-09-10 21:00:00 22.8 3 Norte 13 Norte 0 -- -- 26
2017-09-10 20:00:00 26.1 9 Norte 20 Noroeste 0 -- -- 21
2017-09-10 19:00:00 28.1 8 Norte 20 Noroeste 0 -- -- 18
2017-09-10 18:00:00 28.6 7 Norte 23 Noroeste 0 -- -- 19
2017-09-10 17:00:00 28.9 7 Nordeste 26 Oeste 0 -- -- 20
2017-09-10 16:00:00 27.7 6 Noroeste 24 Noroeste 0 -- -- 23
2017-09-10 15:00:00 25.8 7 Sudeste 18 Este 0 -- -- 26
2017-09-10 14:00:00 25.1 5 Este 15 Este 0 -- -- 28
2017-09-10 13:00:00 23 6 Sudeste 19 Este 0 -- -- 32
2017-09-10 12:00:00 21.9 6 Nordeste 20 Noroeste 0 -- -- 37
2017-09-10 11:00:00 19.8 7 Nordeste 20 Este 0 -- -- 45
2017-09-10 10:00:00 17.7 4 Nordeste 15 Noroeste 0 -- -- 49
2017-09-10 09:00:00 14.5 6 Norte 20 Noroeste 0 -- -- 60
2017-09-10 08:00:00 14.1 7 Noroeste 17 Noroeste 0 -- -- 61
2017-09-10 07:00:00 13.7 12 Noroeste 23 Noroeste 0 -- -- 65
2017-09-10 06:00:00 13.1 11 Noroeste 17 Noroeste 0 -- -- 68
2017-09-10 05:00:00 14 4 Noroeste 24 Noroeste 0 -- -- 64
2017-09-10 04:00:00 14.7 12 Noroeste 21 Noroeste 0 -- -- 61
2017-09-10 03:00:00 15.4 13 Noroeste 27 Noroeste 0 -- -- 59
2017-09-10 02:00:00 16.2 14 Noroeste 28 Noroeste 0 -- -- 56
2017-09-10 01:00:00 17 14 Noroeste 27 Noroeste 0 -- -- 52
2017-09-10 00:00:00 17.9 13 Noroeste 31 Norte 0 -- -- 49
2017-09-09 23:00:00 18.9 13 Noroeste 35 Noroeste 0 -- -- 47
2017-09-09 22:00:00 20.4 14 Noroeste 35 Noroeste 0 -- -- 43
2017-09-09 21:00:00 22.1 14 Noroeste 33 Noroeste 0 -- -- 42
2017-09-09 20:00:00 23.9 14 Noroeste 38 Oeste 0 -- -- 41
2017-09-09 19:00:00 26.1 19 Noroeste 37 Noroeste 0 -- -- 37
2017-09-09 18:00:00 27 22 Noroeste 36 Noroeste 0 -- -- 35
2017-09-09 17:00:00 27.7 18 Noroeste 33 Oeste 0 -- -- 36
2017-09-09 16:00:00 26.8 12 Oeste 29 Noroeste 0 -- -- 38
2017-09-09 15:00:00 25.8 14 Noroeste 25 Noroeste 0 -- -- 40
2017-09-09 14:00:00 26.7 10 Noroeste 21 Noroeste 0 -- -- 38
2017-09-09 13:00:00 23.7 8 Oeste 18 Noroeste 0 -- -- 46
2017-09-09 12:00:00 21.5 9 Noroeste 19 Noroeste 0 -- -- 50
2017-09-09 11:00:00 18.7 8 Noroeste 13 Noroeste 0 -- -- 58
2017-09-09 10:00:00 15.8 4 Noroeste 13 Noroeste 0 -- -- 69
2017-09-09 09:00:00 14.6 8 Noroeste 21 Noroeste 0 -- -- 68
2017-09-09 08:00:00 13.9 11 Noroeste 22 Noroeste 0 -- -- 65
2017-09-09 07:00:00 14.3 5 Noroeste 14 Noroeste 0 -- -- 51
2017-09-09 06:00:00 15.3 9 Noroeste 17 Oeste 0 -- -- 45
2017-09-09 05:00:00 16.4 4 Noroeste 13 Oeste 0 -- -- 35
2017-09-09 04:00:00 17.7 4 Noroeste 15 Noroeste 0 -- -- 34
2017-09-09 03:00:00 19.1 8 Noroeste 15 Noroeste 0 -- -- 34
2017-09-09 02:00:00 21 6 Noroeste 13 Oeste 0 -- -- 31
2017-09-09 01:00:00 22 0 Calma 12 Noroeste 0 -- -- 30
2017-09-09 00:00:00 24.7 6 Noroeste 21 Noroeste 0 -- -- 24
2017-09-08 23:00:00 26.3 11 Noroeste 23 Noroeste 0 -- -- 17
2017-09-08 22:00:00 26.6 8 Oeste 19 Sudoeste 0 -- -- 28
2017-09-08 21:00:00 28.7 10 Sudoeste 16 Sudoeste 0 -- -- 25
2017-09-08 20:00:00 32.2 9 Oeste 23 Noroeste 0 -- -- 11
2017-09-08 19:00:00 34.4 10 Oeste 27 Sudoeste 0 -- -- 11
2017-09-08 18:00:00 35.5 6 Sudoeste 28 Sudoeste 0 -- -- 19
2017-09-08 17:00:00 35.4 10 Oeste 32 Sur 0 -- -- 17
2017-09-08 16:00:00 35.3 12 Oeste 24 Oeste 0 -- -- 17
2017-09-08 15:00:00 34 8 Sudeste 23 Sudeste 0 -- -- 18
2017-09-08 14:00:00 33.5 7 Sudoeste 21 Sudoeste 0 -- -- 17
2017-09-08 13:00:00 32 7 Oeste 15 Sudoeste 0 -- -- 19
2017-09-08 12:00:00 30.7 4 Noroeste 8 Noroeste 0 -- -- 18
2017-09-08 11:00:00 27.3 2 Nordeste 5 Nordeste 0 -- -- 25
2017-09-08 10:00:00 23.4 0 Calma 6 Sudeste 0 -- -- 33
2017-09-08 09:00:00 20.1 0 Calma 2 Este 0 -- -- 37
2017-09-08 08:00:00 19.5 0 Calma 2 Oeste 0 -- -- 31
2017-09-08 07:00:00 20.8 0 Calma 6 Sur 0 -- -- 28
2017-09-08 06:00:00 21.6 2 Sudoeste 5 Sur 0 -- -- 26
2017-09-08 05:00:00 22 0 Calma 8 Oeste 0 -- -- 28
2017-09-08 04:00:00 22.5 3 Oeste 6 Sudoeste 0 -- -- 29
2017-09-08 03:00:00 23 3 Sudoeste 7 Oeste 0 -- -- 30
2017-09-08 02:00:00 23.4 4 Oeste 8 Oeste 0 -- -- 30
2017-09-08 01:00:00 24 3 Oeste 8 Oeste 0 -- -- 31
2017-09-08 00:00:00 24.9 4 Oeste 11 Sudoeste 0 -- -- 39
2017-09-07 23:00:00 26.1 8 Oeste 15 Sudoeste 0 -- -- 40
2017-09-07 22:00:00 27.3 7 Sudoeste 18 Sudoeste 0 -- -- 40
2017-09-07 21:00:00 29 10 Sudoeste 24 Oeste 0 -- -- 36
2017-09-07 20:00:00 32 8 Sudoeste 25 Sudoeste 0 -- -- 29
2017-09-07 19:00:00 33.7 10 Sudoeste 28 Sur 0 -- -- 26
2017-09-07 18:00:00 34.6 12 Sur 25 Sur 0 -- -- 26
2017-09-07 17:00:00 34.8 12 Sur 29 Sudoeste 0 -- -- 27
2017-09-07 16:00:00 35.3 10 Sur 24 Sudeste 0 -- -- 25
2017-09-07 15:00:00 34.7 5 Este 27 Noroeste 0 -- -- 25
2017-09-07 14:00:00 33.4 8 Oeste 14 Sur 0 -- -- 27
2017-09-07 13:00:00 31.7 6 Noroeste 14 Oeste 0 -- -- 32
2017-09-07 12:00:00 29.5 6 Oeste 12 Noroeste 0 -- -- 37
2017-09-07 11:00:00 27.2 5 Noroeste 13 Noroeste 0 -- -- 41
2017-09-07 10:00:00 23.4 0 Calma 3 Norte 0 -- -- 59
2017-09-07 09:00:00 20.2 0 Calma 4 Sur 0 -- -- 67
2017-09-07 08:00:00 19.1 0 Calma 4 Sudeste 0 -- -- 69
2017-09-07 07:00:00 19.7 0 Calma 2 Oeste 0 -- -- 66
2017-09-07 06:00:00 20.3 0 Calma 4 Sur 0 -- -- 62
2017-09-07 05:00:00 21.6 0 Calma 14 Sur 0 -- -- 54
2017-09-07 04:00:00 23.1 3 Sur 10 Sur 0 -- -- 50
2017-09-07 03:00:00 24.4 3 Oeste 10 Sudoeste 0 -- -- 44
2017-09-07 02:00:00 24.1 4 Sur 9 Sudoeste 0 -- -- 50
2017-09-07 01:00:00 26.1 4 Oeste 10 Sudoeste 0 -- -- 43
2017-09-07 00:00:00 27 4 Oeste 18 Sudoeste 0 -- -- 43
2017-09-06 23:00:00 28 8 Oeste 21 Sudoeste 0 -- -- 42
2017-09-06 22:00:00 29.6 11 Sudoeste 23 Sudoeste 0 -- -- 39
2017-09-06 21:00:00 31.1 9 Sudoeste 21 Sudoeste 0 -- -- 36
2017-09-06 20:00:00 33.1 6 Sur 19 Sur 0 -- -- 30
2017-09-06 19:00:00 34.8 9 Sur 23 Sudoeste 0 -- -- 28
2017-09-06 18:00:00 36.1 8 Sudoeste 21 Oeste 0 -- -- 26
2017-09-06 17:00:00 35.8 9 Sur 21 Sudoeste 0 -- -- 27
2017-09-06 16:00:00 35.3 10 Sudoeste 25 Sudoeste 0 -- -- 29
2017-09-06 15:00:00 34.7 8 Sur 22 Sudeste 0 -- -- 31
2017-09-06 14:00:00 34 6 Sur 21 Sudeste 0 -- -- 31
2017-09-06 13:00:00 33.2 9 Sudeste 20 Este 0 -- -- 31
2017-09-06 12:00:00 31.5 5 Nordeste 11 Sudeste 0 -- -- 35
2017-09-06 11:00:00 28.7 4 Nordeste 9 Norte 0 -- -- 43
2017-09-06 10:00:00 24.8 2 Norte 5 Nordeste 0 -- -- 53
2017-09-06 09:00:00 21.8 0 Calma 4 Sudeste 0 -- -- 63
2017-09-06 08:00:00 22.2 4 Sur 10 Sur 0 -- -- 59
2017-09-06 07:00:00 22 3 Sur 8 Sur 0 -- -- 59
2017-09-06 06:00:00 21.9 3 Sur 5 Sudeste 0 -- -- 60
2017-09-06 05:00:00 22.4 0 Calma 10 Noroeste 0 -- -- 57
2017-09-06 04:00:00 23.1 5 Noroeste 9 Noroeste 0 -- -- 55
2017-09-06 03:00:00 23.7 0 Calma 13 Oeste 0 -- -- 56
2017-09-06 02:00:00 24.3 4 Oeste 11 Oeste 0 -- -- 56
2017-09-06 01:00:00 25 6 Oeste 12 Sudoeste 0 -- -- 55
2017-09-06 00:00:00 25.7 6 Oeste 15 Sudoeste 0 -- -- 53
2017-09-05 23:00:00 26.6 8 Oeste 16 Oeste 0 -- -- 52
2017-09-05 22:00:00 27.5 7 Oeste 18 Noroeste 0 -- -- 50
2017-09-05 21:00:00 29.2 8 Sudoeste 21 Sudoeste 0 -- -- 47
2017-09-05 20:00:00 32.4 5 Sur 16 Sudoeste 0 -- -- 32
2017-09-05 19:00:00 33.5 4 Sur 19 Sudoeste 0 -- -- 31
2017-09-05 18:00:00 33.9 6 Sur 14 Oeste 0 -- -- 30
2017-09-05 17:00:00 33.1 10 Sudeste 18 Sudeste 0 -- -- 31
2017-09-05 16:00:00 32.7 8 Sudeste 25 Sudeste 0 -- -- 33
2017-09-05 15:00:00 32.2 6 Sudoeste 20 Sudeste 0 -- -- 35
2017-09-05 14:00:00 31 7 Sur 19 Sudeste 0 -- -- 36
2017-09-05 13:00:00 29.6 9 Sur 19 Sur 0 -- -- 42
2017-09-05 12:00:00 28.7 6 Sur 17 Sudeste 0 -- -- 44
2017-09-05 11:00:00 27.1 5 Este 15 Este 0 -- -- 47
2017-09-05 10:00:00 24.4 6 Este 14 Este 0 -- -- 55
2017-09-05 09:00:00 20.7 0 Calma 9 Sudeste 0 -- -- 68
2017-09-05 08:00:00 18.9 3 Sur 6 Sur 0 -- -- 72
2017-09-05 07:00:00 18.8 0 Calma 6 Oeste 0 -- -- 73
2017-09-05 06:00:00 19.4 0 Calma 8 Oeste 0 -- -- 70
2017-09-05 05:00:00 20.1 3 Oeste 8 Oeste 0 -- -- 67
2017-09-05 04:00:00 21 4 Oeste 16 Oeste 0 -- -- 64
2017-09-05 03:00:00 21.8 8 Oeste 17 Noroeste 0 -- -- 62
2017-09-05 02:00:00 22.1 4 Oeste 11 Norte 0 -- -- 59
2017-09-05 01:00:00 23.2 3 Noroeste 15 Noroeste 0 -- -- 55
2017-09-05 00:00:00 24.7 7 Noroeste 15 Noroeste 0 -- -- 49
2017-09-04 23:00:00 25.2 6 Norte 13 Norte 0 -- -- 48
2017-09-04 22:00:00 26.8 5 Norte 14 Norte 0 -- -- 44
2017-09-04 21:00:00 28.5 6 Norte 17 Norte 0 -- -- 39
2017-09-04 20:00:00 31.8 6 Noroeste 17 Norte 0 -- -- 32
2017-09-04 19:00:00 33.1 8 Noroeste 17 Norte 0 -- -- 28
2017-09-04 18:00:00 33.6 8 Norte 23 Noroeste 0 -- -- 28
2017-09-04 17:00:00 32.7 11 Noroeste 25 Noroeste 0 -- -- 27
2017-09-04 16:00:00 32.3 9 Noroeste 21 Noroeste 0 -- -- 28
2017-09-04 15:00:00 31.3 8 Norte 23 Norte 0 -- -- 31
2017-09-04 14:00:00 30.6 4 Norte 19 Norte 0 -- -- 34
2017-09-04 13:00:00 27.8 7 Noroeste 22 Noroeste 0 -- -- 39
2017-09-04 12:00:00 27.9 4 Nordeste 20 Noroeste 0 -- -- 40
2017-09-04 11:00:00 25.6 6 Norte 19 Noroeste 0 -- -- 46
2017-09-04 10:00:00 22.5 9 Norte 19 Noroeste 0 -- -- 49
2017-09-04 09:00:00 19.4 4 Norte 13 Noroeste 0 -- -- 54
2017-09-04 08:00:00 18.7 7 Noroeste 12 Noroeste 0 -- -- 50
2017-09-04 07:00:00 18.9 6 Noroeste 14 Noroeste 0 -- -- 43
2017-09-04 06:00:00 19 6 Noroeste 10 Oeste 0 -- -- 40
2017-09-04 05:00:00 19.3 3 Oeste 10 Noroeste 0 -- -- 34
2017-09-04 04:00:00 19.9 4 Oeste 11 Noroeste 0 -- -- 30
2017-09-04 03:00:00 21.8 8 Noroeste 22 Noroeste 0 -- -- 27
2017-09-04 02:00:00 23.3 10 Oeste 19 Noroeste 0 -- -- 25
2017-09-04 01:00:00 24.2 9 Oeste 17 Oeste 0 -- -- 25
2017-09-04 00:00:00 24.8 8 Oeste 17 Oeste 0 -- -- 26
2017-09-03 23:00:00 25.3 6 Oeste 15 Oeste 0 -- -- 40
2017-09-03 22:00:00 26.9 8 Sudoeste 14 Sudoeste 0 -- -- 31
2017-09-03 21:00:00 29.3 9 Noroeste 23 Noroeste 0 -- -- 25
2017-09-03 20:00:00 31.8 13 Noroeste 26 Norte 0 -- -- 23
2017-09-03 19:00:00 33.4 10 Noroeste 20 Noroeste 0 -- -- 23
2017-09-03 18:00:00 32.8 10 Oeste 21 Sudoeste 0 -- -- 26
2017-09-03 17:00:00 32.7 10 Sudoeste 29 Oeste 0 -- -- 28
2017-09-03 16:00:00 32.4 8 Sur 22 Noroeste 0 -- -- 30
2017-09-03 15:00:00 31.9 6 Oeste 20 Oeste 0 -- -- 32
2017-09-03 14:00:00 30.8 6 Oeste 16 Oeste 0 -- -- 36
2017-09-03 13:00:00 29.8 6 Oeste 15 Sudoeste 0 -- -- 41
2017-09-03 12:00:00 27.6 4 Norte 13 Oeste 0 -- -- 47
2017-09-03 11:00:00 25.8 3 Nordeste 7 Este 0 -- -- 53
2017-09-03 10:00:00 22.5 2 Nordeste 5 Este 0 -- -- 68
2017-09-03 09:00:00 20 0 Calma 2 Oeste 0 -- -- 83
2017-09-03 08:00:00 19 0 Calma 2 Oeste 0 -- -- 86
2017-09-03 07:00:00 19.4 0 Calma 7 Oeste 0 -- -- 83
2017-09-03 06:00:00 20.3 2 Sudoeste 8 Oeste 0 -- -- 80
2017-09-03 05:00:00 20.6 0 Calma 9 Sudoeste 0 -- -- 78
2017-09-03 04:00:00 21.5 3 Oeste 13 Oeste 0 -- -- 74
2017-09-03 03:00:00 22.6 5 Oeste 12 Oeste 0 -- -- 69
2017-09-03 02:00:00 23.3 5 Oeste 18 Oeste 0 -- -- 66
2017-09-03 01:00:00 23.8 8 Oeste 17 Sudoeste 0 -- -- 64
2017-09-03 00:00:00 24.6 8 Sudoeste 17 Sudoeste 0 -- -- 63
2017-09-02 23:00:00 26.1 3 Sudoeste 13 Sudeste 0 -- -- 54
2017-09-02 22:00:00 27.4 6 Sudeste 11 Sur 0 -- -- 44
2017-09-02 21:00:00 29 6 Sur 14 Sudeste 0 -- -- 42
2017-09-02 20:00:00 30.9 8 Sudeste 15 Sudeste 0 -- -- 38
2017-09-02 19:00:00 31.5 8 Sudeste 21 Sudeste 0 -- -- 37
2017-09-02 18:00:00 32.9 6 Nordeste 24 Este 0 -- -- 34
2017-09-02 17:00:00 32.3 8 Nordeste 21 Sudeste 0 -- -- 32
2017-09-02 16:00:00 30.8 10 Este 28 Sudeste 0 -- -- 38
2017-09-02 15:00:00 31.3 11 Sudeste 24 Sudeste 0 -- -- 41
2017-09-02 14:00:00 29.9 8 Sudeste 26 Este 0 -- -- 45
2017-09-02 13:00:00 28.9 12 Este 26 Sudeste 0 -- -- 49
2017-09-02 12:00:00 29 7 Nordeste 19 Este 0 -- -- 50
2017-09-02 11:00:00 26.3 8 Este 16 Este 0 -- -- 58
2017-09-02 10:00:00 22.9 3 Este 12 Sudeste 0 -- -- 66
2017-09-02 09:00:00 19.9 0 Calma 8 Sudeste 0 -- -- 74
2017-09-02 08:00:00 19.1 8 Sudeste 13 Sudeste 0 -- -- 71
2017-09-02 07:00:00 18.4 0 Calma 6 Este 0 -- -- 77
2017-09-02 06:00:00 19 4 Este 6 Este 0 -- -- 65
2017-09-02 05:00:00 20.1 0 Calma 4 Sudeste 0 -- -- 55
2017-09-02 04:00:00 20.9 0 Calma 2 Oeste 0 -- -- 51
2017-09-02 03:00:00 22.4 0 Calma 10 Este 0 -- -- 45
2017-09-02 02:00:00 22.3 3 Sudeste 5 Sudeste 0 -- -- 45
2017-09-02 01:00:00 22.9 0 Calma 11 Sur 0 -- -- 49
2017-09-02 00:00:00 24.5 0 Calma 6 Oeste 0 -- -- 41
2017-09-01 23:00:00 26.6 0 Calma 8 Oeste 0 -- -- 34
2017-09-01 22:00:00 27.5 0 Calma 10 Sudoeste 0 -- -- 44
2017-09-01 21:00:00 29.6 4 Sur 9 Sudoeste 0 -- -- 37
2017-09-01 20:00:00 31.6 3 Sur 13 Sudoeste 0 -- -- 32
2017-09-01 19:00:00 32.9 7 Sur 22 Sur 0 -- -- 29
2017-09-01 18:00:00 33.4 9 Sudeste 24 Sudeste 0 -- -- 28
2017-09-01 17:00:00 34 4 Sur 16 Oeste 0 -- -- 25
2017-09-01 16:00:00 33.9 4 Sur 18 Nordeste 0 -- -- 25
2017-09-01 15:00:00 33.3 9 Nordeste 25 Este 0 -- -- 27
2017-09-01 14:00:00 32.7 6 Este 19 Este 0 -- -- 29
2017-09-01 13:00:00 30.6 8 Sudeste 22 Este 0 -- -- 33
2017-09-01 12:00:00 30.1 9 Este 18 Este 0 -- -- 34
2017-09-01 11:00:00 27.7 5 Nordeste 16 Este 0 -- -- 37
2017-09-01 10:00:00 23.1 2 Nordeste 6 Sudeste 0 -- -- 52
2017-09-01 09:00:00 19.9 0 Calma 6 Sudoeste 0 -- -- 58
2017-09-01 08:00:00 19.2 0 Calma 6 Sudoeste 0 -- -- 59
2017-09-01 07:00:00 19.6 3 Oeste 5 Oeste 0 -- -- 57
2017-09-01 06:00:00 19.1 3 Sudoeste 5 Sudoeste 0 -- -- 62
2017-09-01 05:00:00 19.7 0 Calma 6 Este 0 -- -- 57
2017-09-01 04:00:00 20.5 2 Sudeste 6 Sudeste 0 -- -- 52
2017-09-01 03:00:00 22.2 6 Sudeste 11 Sudeste 0 -- -- 45
2017-09-01 02:00:00 22 0 Calma 3 Oeste 0 -- -- 49
2017-09-01 01:00:00 22.5 0 Calma 4 Oeste 0 -- -- 49
2017-09-01 00:00:00 23.2 0 Calma 8 Oeste 0 -- -- 48
2017-08-31 23:00:00 24.2 4 Oeste 8 Sudoeste 0 -- -- 44
2017-08-31 22:00:00 24.9 4 Oeste 14 Sur 0 -- -- 43
2017-08-31 21:00:00 27.8 7 Sur 14 Sur 0 -- -- 36
2017-08-31 20:00:00 30.8 4 Sudeste 14 Sudeste 0 -- -- 30
2017-08-31 19:00:00 31.7 5 Sudeste 21 Sudeste 0 -- -- 28
2017-08-31 18:00:00 32.1 5 Oeste 12 Oeste 0 -- -- 27
2017-08-31 17:00:00 32.9 5 Nordeste 17 Este 0 -- -- 28
2017-08-31 16:00:00 31.5 3 Este 19 Este 0 -- -- 29
2017-08-31 15:00:00 30.9 6 Nordeste 22 Este 0 -- -- 31
2017-08-31 14:00:00 29.7 6 Noroeste 19 Este 0 -- -- 32
2017-08-31 13:00:00 28 8 Sudeste 22 Este 0 -- -- 36
2017-08-31 12:00:00 28.1 8 Este 17 Este 0 -- -- 39
2017-08-31 11:00:00 25.6 10 Este 17 Este 0 -- -- 48
2017-08-31 10:00:00 21.5 0 Calma 6 Este 0 -- -- 63
2017-08-31 09:00:00 18.9 2 Este 6 Este 0 -- -- 71
2017-08-31 08:00:00 16.7 0 Calma 4 Oeste 0 -- -- 79
2017-08-31 07:00:00 16.9 2 Oeste 4 Oeste 0 -- -- 77
2017-08-31 06:00:00 16.8 0 Calma 2 Sudeste 0 -- -- 73
2017-08-31 05:00:00 17.1 2 Oeste 5 Oeste 0 -- -- 75
2017-08-31 04:00:00 17.6 2 Oeste 5 Oeste 0 -- -- 81
2017-08-31 03:00:00 18 0 Calma 2 Norte 0 -- -- 80
2017-08-31 02:00:00 19.6 3 Sudoeste 10 Noroeste 0 -- -- 72
2017-08-31 01:00:00 20.1 4 Oeste 10 Sudoeste 0 -- -- 69
2017-08-31 00:00:00 20.9 4 Sudoeste 9 Sudoeste 0 -- -- 65
2017-08-30 23:00:00 21.3 5 Oeste 11 Sudoeste 0 -- -- 62
2017-08-30 22:00:00 22.2 6 Sur 12 Sudoeste 0 -- -- 50
2017-08-30 21:00:00 24.2 6 Sudoeste 17 Sur 0 -- -- 44
2017-08-30 20:00:00 26.6 7 Sudoeste 15 Sudoeste 0 -- -- 39
2017-08-30 19:00:00 27.9 3 Noroeste 15 Oeste 0 -- -- 36
2017-08-30 18:00:00 27.2 6 Sudeste 15 Sudeste 0 -- -- 36
2017-08-30 17:00:00 25.8 4 Sur 16 Este 0 -- -- 40
2017-08-30 16:00:00 26.7 5 Nordeste 15 Sudeste 0 -- -- 40
2017-08-30 15:00:00 25.9 6 Sudoeste 15 Sudoeste 0 -- -- 42
2017-08-30 14:00:00 24.5 7 Este 19 Este 0 -- -- 47
2017-08-30 13:00:00 22.2 3 Oeste 14 Sudeste 0 -- -- 56
2017-08-30 12:00:00 21.2 4 Sur 13 Sudeste 0 -- -- 59
2017-08-30 11:00:00 19.9 4 Norte 8 Norte 0.2 -- -- 74
2017-08-30 10:00:00 17.7 0 Calma 3 Nordeste 0 -- -- 86
2017-08-30 09:00:00 14.6 0 Calma 2 Sur 0 -- -- 97
2017-08-30 08:00:00 13.7 0 Calma 3 Noroeste 0 -- -- 96
2017-08-30 07:00:00 13.9 2 Sudeste 4 Oeste 0 -- -- 96
2017-08-30 06:00:00 14.4 4 Sur 6 Sur 0 -- -- 94
2017-08-30 05:00:00 15.4 3 Sur 8 Sur 0 -- -- 90
2017-08-30 04:00:00 14.9 0 Calma 8 Sur 0 -- -- 93
2017-08-30 03:00:00 15.1 3 Sudeste 6 Sudeste 0 -- -- 92
2017-08-30 02:00:00 15.3 0 Calma 3 Sudoeste 0 -- -- 92
2017-08-30 01:00:00 15.6 2 Sudoeste 4 Sudoeste 0 -- -- 91
2017-08-30 00:00:00 16 2 Sudoeste 5 Sur 0 -- -- 90
2017-08-29 23:00:00 16.2 2 Sudoeste 4 Sudoeste 0 -- -- 90
2017-08-29 22:00:00 16.8 2 Oeste 6 Oeste 0 -- -- 87
2017-08-29 21:00:00 17.9 3 Oeste 6 Oeste 0 -- -- 82
2017-08-29 20:00:00 19.4 2 Oeste 12 Sudoeste 0 -- -- 76
2017-08-29 19:00:00 21 5 Oeste 13 Oeste 0 -- -- 71
2017-08-29 18:00:00 19.9 7 Oeste 15 Oeste 0.2 -- -- 75
2017-08-29 17:00:00 17.4 2 Sudoeste 5 Noroeste 0.4 -- -- 91
2017-08-29 16:00:00 17.1 2 Noroeste 12 Sudoeste 1 -- -- 94
2017-08-29 15:00:00 15.9 6 Sudoeste 14 Noroeste 5.2 -- -- 92
2017-08-29 14:00:00 17.2 10 Oeste 24 Oeste 0.4 -- -- 72
2017-08-29 13:00:00 21.1 5 Sudeste 14 Sudeste 0 -- -- 64
2017-08-29 12:00:00 19.7 5 Sur 13 Sur 0 -- -- 73
2017-08-29 11:00:00 18.9 4 Sudeste 12 Sudeste 0 -- -- 79
2017-08-29 10:00:00 17.8 4 Este 7 Este 0 -- -- 86
2017-08-29 09:00:00 16.5 0 Calma 5 Este 0 -- -- 94
2017-08-29 08:00:00 15.6 0 Calma 8 Sudeste 0 -- -- 94
2017-08-29 07:00:00 15.8 0 Calma 5 Este 0 -- -- 93
2017-08-29 06:00:00 15.7 3 Sudeste 7 Sudeste 0 -- -- 96
2017-08-29 05:00:00 15.2 0 Calma 4 Sudeste 0 -- -- 93
2017-08-29 04:00:00 15.5 0 Calma 4 Sudoeste 0 -- -- 92
2017-08-29 03:00:00 16.2 0 Calma 13 Sur 0 -- -- 89
2017-08-29 02:00:00 16.9 7 Sur 13 Sur 0 -- -- 89
2017-08-29 01:00:00 16.6 6 Sur 14 Sur 0 -- -- 86
2017-08-29 00:00:00 17.4 5 Sudoeste 13 Sudoeste 0 -- -- 80
2017-08-28 23:00:00 18.3 3 Sudoeste 12 Sudoeste 0 -- -- 74
2017-08-28 22:00:00 19.3 5 Sudoeste 22 Sudoeste 0 -- -- 68
2017-08-28 21:00:00 20.8 10 Sudoeste 25 Sudoeste 0 -- -- 62
2017-08-28 20:00:00 23.3 10 Sudoeste 30 Sudoeste 0 -- -- 52
2017-08-28 19:00:00 25.3 15 Sudoeste 34 Sudoeste 0 -- -- 45
2017-08-28 18:00:00 25.5 9 Sur 27 Sur 0 -- -- 43
2017-08-28 17:00:00 26.6 10 Sur 29 Sudoeste 0 -- -- 38
2017-08-28 16:00:00 26 12 Sudoeste 28 Sudoeste 0 -- -- 39
2017-08-28 15:00:00 27.1 12 Sudoeste 30 Sudoeste 0 -- -- 37
2017-08-28 14:00:00 26 12 Sudoeste 28 Sudoeste 0 -- -- 38
2017-08-28 13:00:00 25 12 Oeste 21 Oeste 0 -- -- 40
2017-08-28 12:00:00 23.6 8 Sudoeste 24 Oeste 0 -- -- 47
2017-08-28 11:00:00 21.9 13 Sudoeste 24 Oeste 0 -- -- 55
2017-08-28 10:00:00 19.3 3 Sudoeste 12 Oeste 0 -- -- 83
2017-08-28 09:00:00 18.5 3 Sudoeste 8 Sur 0 -- -- 92
2017-08-28 08:00:00 17.6 0 Calma 10 Sur 0 -- -- 93
2017-08-28 07:00:00 17.3 2 Sur 5 Sudeste 0 -- -- 90
2017-08-28 06:00:00 18.2 0 Calma 4 Oeste 0 -- -- 84
2017-08-28 05:00:00 19.1 3 Sur 8 Sur 0 -- -- 79
2017-08-28 04:00:00 18.9 4 Sudeste 9 Sur 0 -- -- 81
2017-08-28 03:00:00 19.1 6 Sur 9 Sur 0 -- -- 70
2017-08-28 02:00:00 20 4 Sudoeste 15 Sur 0 -- -- 61
2017-08-28 01:00:00 20.3 7 Sur 14 Sur 0 -- -- 61
2017-08-28 00:00:00 21 8 Sur 15 Sudoeste 0 -- -- 58
2017-08-27 23:00:00 22.5 7 Sudoeste 17 Sudoeste 0 -- -- 44
2017-08-27 22:00:00 24 6 Sudoeste 13 Sudoeste 0 -- -- 39
2017-08-27 21:00:00 25.4 7 Sudoeste 24 Sur 0 -- -- 42
2017-08-27 20:00:00 26.9 12 Sudoeste 30 Sudoeste 0 -- -- 59
2017-08-27 19:00:00 28.1 10 Sur 32 Sudoeste 0 -- -- 59
2017-08-27 18:00:00 28.1 12 Sur 35 Sudoeste 0 -- -- 52
2017-08-27 17:00:00 29 14 Sur 36 Sur 0 -- -- 51
2017-08-27 16:00:00 28.4 12 Sur 35 Sudoeste 0 -- -- 54
2017-08-27 15:00:00 28.9 11 Sur 30 Sur 0 -- -- 51
2017-08-27 14:00:00 27.8 14 Sur 30 Sudeste 0 -- -- 55
2017-08-27 13:00:00 26.6 12 Sur 30 Sudeste 0 -- -- 61
2017-08-27 12:00:00 25.4 13 Sur 22 Sur 0 -- -- 67
2017-08-27 11:00:00 24.1 9 Sudoeste 19 Sudoeste 0 -- -- 72
2017-08-27 10:00:00 21.8 9 Sudeste 25 Sudeste 0 -- -- 80
2017-08-27 09:00:00 20.9 7 Sudeste 16 Sur 2.2 -- -- 88
2017-08-27 08:00:00 21.3 0 Calma 15 Sudoeste 0.4 -- -- 84
2017-08-27 07:00:00 21.8 2 Sudeste 10 Oeste 0 -- -- 74
2017-08-27 06:00:00 23.2 4 Sudoeste 10 Sudoeste 0 -- -- 61
2017-08-27 05:00:00 23 4 Sur 10 Sudoeste 0 -- -- 60
2017-08-27 04:00:00 24.4 5 Sudoeste 22 Sudoeste 0 -- -- 56
2017-08-27 03:00:00 26.2 8 Sudoeste 16 Sudoeste 0 -- -- 48
2017-08-27 02:00:00 26.6 4 Sudoeste 9 Sudeste 0 -- -- 46
2017-08-27 01:00:00 27.2 0 Calma 13 Oeste 0 -- -- 41
2017-08-27 00:00:00 27.6 0 Calma 10 Sur 0 -- -- 39
2017-08-26 23:00:00 28.8 6 Sudoeste 12 Sur 0 -- -- 36
2017-08-26 22:00:00 29.3 6 Sudoeste 14 Sur 0 -- -- 33
2017-08-26 21:00:00 30.6 4 Oeste 19 Sudoeste 0 -- -- 30
2017-08-26 20:00:00 32.3 9 Sur 24 Sur 0 -- -- 27
2017-08-26 19:00:00 33.2 6 Sur 28 Este 0 -- -- 24
2017-08-26 18:00:00 34.5 15 Este 35 Este 0 -- -- 23
2017-08-26 17:00:00 32.5 15 Este 27 Sudeste 0 -- -- 25
2017-08-26 16:00:00 32.3 7 Sudoeste 15 Sur 0 -- -- 25
2017-08-26 15:00:00 35.1 8 Nordeste 19 Nordeste 0 -- -- 17
2017-08-26 14:00:00 34.1 5 Nordeste 16 Este 0 -- -- 19
2017-08-26 13:00:00 32.4 7 Nordeste 26 Este 0 -- -- 22
2017-08-26 12:00:00 30.9 4 Nordeste 22 Noroeste 0 -- -- 26
2017-08-26 11:00:00 29.2 8 Noroeste 17 Noroeste 0 -- -- 24
2017-08-26 10:00:00 26 5 Noroeste 15 Oeste 0 -- -- 37
2017-08-26 09:00:00 22.8 7 Oeste 16 Sudoeste 0 -- -- 40
2017-08-26 08:00:00 22.5 5 Oeste 26 Oeste 0 -- -- 38
2017-08-26 07:00:00 21.7 5 Sur 10 Este 0 -- -- 37
2017-08-26 06:00:00 22.4 3 Nordeste 15 Oeste 0 -- -- 37
2017-08-26 05:00:00 23.3 4 Sur 15 Oeste 0 -- -- 32
2017-08-26 04:00:00 22.7 0 Calma 5 Sur 0 -- -- 35
2017-08-26 03:00:00 23 3 Oeste 7 Sudoeste 0 -- -- 30
2017-08-26 02:00:00 22.7 0 Calma 2 Sudeste 0 -- -- 37
2017-08-26 01:00:00 23 2 Sur 3 Sudeste 0 -- -- 38
2017-08-26 00:00:00 24.2 2 Sudoeste 10 Sudoeste 0 -- -- 35